Time;durP1;ratioP1;P1;durP2;ratioP2;P2;SDS_P1;SDS_P2;PMS_P1;PMS_P2;Temp;Humidity;BMP_temperature;BMP_pressure;BME280_temperature;BME280_humidity;BME280_pressure;Samples;Min_cycle;Max_cycle;Signal;HPM_P1;HPM_P2
2023/09/05 00:01:03;;;;;;;1.98;1.40;;;;;;;25.30;36.34;99113.16;2084013;28;20048;-48
2023/09/05 00:02:05;;;;;;;1.77;1.48;;;;;;;25.28;36.38;99104.41;2086967;28;22574;-44
2023/09/05 00:03:07;;;;;;;2.00;1.55;;;;;;;25.26;36.22;99106.53;2085507;28;20048;-46
2023/09/05 00:04:09;;;;;;;2.83;1.70;;;;;;;25.25;36.16;99107.59;2082019;28;20101;-45
2023/09/05 00:05:12;;;;;;;2.05;1.30;;;;;;;25.25;36.44;99113.03;2084774;28;20462;-49
2023/09/05 00:06:14;;;;;;;2.85;1.15;;;;;;;25.24;36.44;99108.66;2081488;28;20056;-50
2023/09/05 00:07:16;;;;;;;1.73;1.40;;;;;;;25.21;35.88;99103.69;2089158;28;20045;-47
2023/09/05 00:08:18;;;;;;;2.72;2.40;;;;;;;25.23;36.32;99112.44;2086736;28;20139;-47
2023/09/05 00:09:19;;;;;;;2.60;1.25;;;;;;;25.22;36.38;99099.94;2086753;28;20422;-46
2023/09/05 00:10:21;;;;;;;4.03;1.55;;;;;;;25.23;36.16;99101.56;2080748;28;20074;-46
2023/09/05 00:11:22;;;;;;;3.45;1.75;;;;;;;25.22;35.92;99097.22;2085456;28;20048;-50
2023/09/05 00:12:27;;;;;;;1.80;1.63;;;;;;;25.21;36.22;99103.69;2091065;28;20131;-45
2023/09/05 00:13:28;;;;;;;2.25;1.45;;;;;;;25.19;36.09;99104.75;2089565;28;20056;-50
2023/09/05 00:14:29;;;;;;;2.70;1.67;;;;;;;25.22;36.62;99103.47;2088468;28;20849;-46
2023/09/05 00:15:30;;;;;;;6.63;1.58;;;;;;;25.18;36.60;99100.41;2083426;28;20067;-50
2023/09/05 00:16:32;;;;;;;1.58;1.15;;;;;;;25.20;36.25;99105.59;2084503;28;20075;-47
2023/09/05 00:17:34;;;;;;;2.05;1.73;;;;;;;25.19;36.10;99096.63;2084352;28;20053;-45
2023/09/05 00:18:36;;;;;;;1.77;1.52;;;;;;;25.18;36.05;99105.84;2081554;28;20592;-47
2023/09/05 00:19:37;;;;;;;2.17;1.58;;;;;;;25.18;36.32;99103.13;2081680;28;20055;-47
2023/09/05 00:20:40;;;;;;;2.50;1.83;;;;;;;25.18;35.97;99096.84;2085076;28;20053;-44
2023/09/05 00:21:41;;;;;;;2.97;1.38;;;;;;;25.21;36.29;99109.13;2085174;28;20076;-44
2023/09/05 00:22:44;;;;;;;2.55;1.60;;;;;;;25.19;35.72;99102.06;2089102;28;20566;-46
2023/09/05 00:23:45;;;;;;;2.25;1.90;;;;;;;25.17;36.31;99104.16;2088964;28;20140;-46
2023/09/05 00:24:46;;;;;;;3.38;1.50;;;;;;;25.21;35.35;99103.69;2085061;28;20045;-45
2023/09/05 00:25:47;;;;;;;3.50;1.40;;;;;;;25.17;36.03;99109.59;2084904;28;20045;-46
2023/09/05 00:26:48;;;;;;;1.90;1.40;;;;;;;25.15;36.31;99106.28;2088800;28;20053;-46
2023/09/05 00:27:50;;;;;;;4.63;1.42;;;;;;;25.18;35.95;99100.41;2084677;28;20470;-47
2023/09/05 00:28:51;;;;;;;3.20;1.60;;;;;;;25.28;35.54;99101.69;2083551;28;20045;-49
2023/09/05 00:29:52;;;;;;;3.08;1.52;;;;;;;25.27;35.82;99102.75;2086248;28;20183;-47
2023/09/05 00:30:53;;;;;;;4.38;1.25;;;;;;;25.26;35.40;99103.81;2088661;28;20048;-47
2023/09/05 00:31:58;;;;;;;2.33;1.33;;;;;;;25.26;35.64;99095.69;2084739;28;20510;-46
2023/09/05 00:33:00;;;;;;;3.72;1.40;;;;;;;25.24;35.44;99097.78;2085865;28;20053;-45
2023/09/05 00:34:01;;;;;;;3.30;1.67;;;;;;;25.25;35.35;99096.75;2087392;28;20052;-46
2023/09/05 00:35:02;;;;;;;3.05;1.92;;;;;;;25.25;35.70;99096.75;2087809;28;20502;-46
2023/09/05 00:36:05;;;;;;;1.95;1.33;;;;;;;25.19;35.59;99091.19;2083421;28;20063;-46
2023/09/05 00:37:09;;;;;;;2.10;1.40;;;;;;;25.20;35.78;99097.44;2080037;28;20091;-47
2023/09/05 00:38:10;;;;;;;2.42;1.77;;;;;;;25.18;35.75;99097.69;2084731;28;20048;-47
2023/09/05 00:39:10;;;;;;;4.18;1.75;;;;;;;25.19;35.59;99093.91;2083873;28;20049;-45
2023/09/05 00:40:12;;;;;;;4.40;1.60;;;;;;;25.22;35.29;99089.91;2082608;28;20717;-45
2023/09/05 00:41:15;;;;;;;3.03;1.38;;;;;;;25.19;35.37;99091.19;2080945;28;20049;-46
2023/09/05 00:42:17;;;;;;;2.72;1.42;;;;;;;25.22;35.26;99091.78;2085313;28;20131;-48
2023/09/05 00:43:20;;;;;;;2.20;1.33;;;;;;;25.34;35.06;99098.84;2082782;28;20828;-47
2023/09/05 00:44:21;;;;;;;2.17;1.45;;;;;;;25.42;35.08;99089.53;2083538;28;20045;-47
2023/09/05 00:45:23;;;;;;;2.10;1.35;;;;;;;25.41;35.12;99098.75;2082057;28;20541;-46
2023/09/05 00:46:23;;;;;;;2.80;1.95;;;;;;;25.38;34.84;99091.06;2085689;28;20064;-46
2023/09/05 00:47:27;;;;;;;2.30;1.48;;;;;;;25.32;35.34;99095.53;2088028;28;20044;-47
2023/09/05 00:48:29;;;;;;;1.48;1.08;;;;;;;25.34;35.33;99090.72;2083890;28;20060;-47
2023/09/05 00:49:38;;;;;;;2.85;1.50;;;;;;;25.33;34.94;99093.69;2087913;28;20048;-46
2023/09/05 00:50:41;;;;;;;2.13;1.38;;;;;;;25.31;35.61;99082.22;2079821;28;20048;-46
2023/09/05 00:51:50;;;;;;;1.98;1.77;;;;;;;25.28;35.37;99094.38;2079867;28;20067;-47
2023/09/05 00:52:52;;;;;;;1.70;1.55;;;;;;;25.25;35.35;99091.31;2085560;28;20616;-47
2023/09/05 00:53:53;;;;;;;4.05;2.10;;;;;;;25.25;35.30;99089.44;2087264;28;20052;-48
2023/09/05 00:54:55;;;;;;;1.85;1.42;;;;;;;25.22;34.92;99098.03;2076986;28;20164;-46
2023/09/05 00:55:56;;;;;;;2.17;1.30;;;;;;;25.24;34.98;99092.34;2085185;28;20081;-48
2023/09/05 00:56:59;;;;;;;2.28;1.40;;;;;;;25.25;34.82;99089.44;2079224;28;20149;-45
2023/09/05 00:58:00;;;;;;;5.95;1.67;;;;;;;25.34;34.49;99084.47;2082057;28;22152;-44
2023/09/05 00:59:01;;;;;;;2.33;1.50;;;;;;;25.34;34.93;99095.31;2089912;28;20083;-48
2023/09/05 01:00:05;;;;;;;6.70;1.75;;;;;;;25.30;34.46;99088.72;2082012;28;20056;-48
2023/09/05 01:01:06;;;;;;;3.25;1.42;;;;;;;25.28;34.95;99088.94;2090474;28;20455;-46
2023/09/05 01:02:07;;;;;;;2.90;1.52;;;;;;;25.28;35.16;99090.84;2087270;28;20106;-46
2023/09/05 01:03:08;;;;;;;3.72;2.10;;;;;;;25.35;34.90;99089.66;2081820;28;21031;-47
2023/09/05 01:04:10;;;;;;;2.67;1.40;;;;;;;25.32;34.90;99073.81;2083997;28;20052;-44
2023/09/05 01:05:12;;;;;;;6.72;1.85;;;;;;;25.37;34.58;99067.69;2083141;28;20053;-50
2023/09/05 01:06:22;;;;;;;2.70;1.33;;;;;;;25.29;35.15;99074.31;2080777;28;20052;-50
2023/09/05 01:07:33;;;;;;;3.85;1.80;;;;;;;25.27;34.87;99067.44;2085985;28;20063;-47
2023/09/05 01:08:39;;;;;;;;;;;;;;;25.23;35.20;99071.72;2085521;28;20473;-47
2023/09/05 01:09:47;;;;;;;1.67;1.20;;;;;;;25.27;35.35;99078.31;2081693;28;20036;-45
2023/09/05 01:10:56;;;;;;;4.70;1.73;;;;;;;25.29;35.19;99076.19;2086549;28;20055;-44
2023/09/05 01:11:58;;;;;;;2.45;2.25;;;;;;;25.25;35.57;99075.84;2083181;28;20047;-47
2023/09/05 01:12:59;;;;;;;1.80;1.60;;;;;;;25.25;34.95;99075.03;2087944;28;20916;-48
2023/09/05 01:14:00;;;;;;;2.38;1.55;;;;;;;25.32;34.90;99070.28;2090091;28;20049;-48
2023/09/05 01:15:01;;;;;;;3.22;1.50;;;;;;;25.29;34.70;99066.16;2087826;28;22077;-49
2023/09/05 01:16:04;;;;;;;2.53;1.23;;;;;;;25.31;35.18;99079.50;2083221;28;20139;-49
2023/09/05 01:17:05;;;;;;;3.85;1.95;;;;;;;25.31;35.30;99074.91;2085721;28;20052;-47
2023/09/05 01:18:07;;;;;;;2.78;1.40;;;;;;;25.46;35.27;99071.69;2085179;28;20049;-47
2023/09/05 01:19:12;;;;;;;1.92;1.38;;;;;;;25.52;34.58;99064.47;2081332;28;20052;-46
2023/09/05 01:20:16;;;;;;;1.85;1.48;;;;;;;25.38;34.90;99066.63;2081987;28;20052;-44
2023/09/05 01:21:26;;;;;;;2.42;1.48;;;;;;;25.28;35.41;99067.22;2086687;28;20056;-46
2023/09/05 01:22:36;;;;;;;1.85;1.63;;;;;;;25.26;35.23;99063.09;2085044;28;20041;-46
2023/09/05 01:23:44;;;;;;;3.08;2.05;;;;;;;25.22;35.30;99070.06;2086829;28;20098;-46
2023/09/05 01:24:49;;;;;;;2.45;1.50;;;;;;;25.19;35.64;99072.19;2082078;28;20199;-45
2023/09/05 01:25:51;;;;;;;1.95;1.23;;;;;;;25.18;35.28;99075.97;2082030;28;20581;-48
2023/09/05 01:26:53;;;;;;;4.47;1.30;;;;;;;25.18;35.28;99066.97;2081664;28;20542;-47
2023/09/05 01:27:58;;;;;;;2.72;1.48;;;;;;;25.21;35.77;99071.94;2082549;28;20052;-48
2023/09/05 01:29:00;;;;;;;2.33;1.70;;;;;;;25.23;35.36;99074.44;2083695;28;22463;-44
2023/09/05 01:30:05;;;;;;;1.67;1.50;;;;;;;25.26;35.58;99071.25;2089468;28;20083;-45
2023/09/05 01:31:06;;;;;;;3.67;1.67;;;;;;;25.34;35.45;99070.88;2082371;28;20051;-46
2023/09/05 01:32:09;;;;;;;2.88;1.40;;;;;;;25.28;35.15;99077.25;2082001;28;20421;-45
2023/09/05 01:33:13;;;;;;;3.45;1.55;;;;;;;25.26;35.59;99080.22;2087723;28;20062;-46
2023/09/05 01:34:14;;;;;;;4.35;1.95;;;;;;;25.26;35.57;99074.78;2084167;28;20134;-44
2023/09/05 01:35:15;;;;;;;2.33;1.60;;;;;;;25.27;35.34;99078.31;2079462;28;20059;-47
2023/09/05 01:36:17;;;;;;;3.90;2.47;;;;;;;25.27;35.88;99073.72;2086512;28;20066;-47
2023/09/05 01:37:18;;;;;;;8.52;1.98;;;;;;;25.27;35.82;99072.88;2086102;28;20044;-44
2023/09/05 01:38:20;;;;;;;2.78;1.58;;;;;;;25.27;35.54;99076.44;2082607;28;20147;-48
2023/09/05 01:39:21;;;;;;;2.90;1.80;;;;;;;25.26;35.84;99069.34;2087170;28;20056;-45
2023/09/05 01:40:24;;;;;;;2.67;1.50;;;;;;;25.35;35.70;99072.53;2083746;28;20127;-44
2023/09/05 01:41:25;;;;;;;3.83;1.55;;;;;;;25.31;35.66;99072.19;2085183;28;20051;-49
2023/09/05 01:42:27;;;;;;;3.83;1.80;;;;;;;25.26;35.56;99069.34;2085828;28;20052;-47
2023/09/05 01:43:28;;;;;;;2.63;1.77;;;;;;;25.24;35.95;99062.50;2079967;28;20842;-44
2023/09/05 01:44:31;;;;;;;2.30;1.75;;;;;;;25.26;36.14;99063.09;2088225;28;20058;-44
2023/09/05 01:45:32;;;;;;;2.38;1.52;;;;;;;25.36;35.88;99066.06;2086181;28;20048;-47
2023/09/05 01:46:34;;;;;;;3.45;1.20;;;;;;;25.31;35.77;99060.50;2084171;28;20075;-47
2023/09/05 01:47:35;;;;;;;7.88;2.00;;;;;;;25.31;35.75;99055.88;2085334;28;20146;-47
2023/09/05 01:48:36;;;;;;;4.47;1.23;;;;;;;25.30;35.85;99061.56;2087972;28;20048;-46
2023/09/05 01:49:37;;;;;;;2.00;1.38;;;;;;;25.27;36.12;99057.44;2079459;28;21757;-46
2023/09/05 01:50:38;;;;;;;3.15;1.55;;;;;;;25.23;36.26;99055.44;2086195;28;20083;-46
2023/09/05 01:51:40;;;;;;;2.30;1.67;;;;;;;25.23;35.84;99052.72;2086824;28;20086;-44
2023/09/05 01:52:41;;;;;;;3.55;1.63;;;;;;;25.19;35.90;99058.63;2086386;28;20048;-43
2023/09/05 01:53:42;;;;;;;3.55;2.20;;;;;;;25.23;36.18;99060.84;2086177;28;20509;-43
2023/09/05 01:54:43;;;;;;;1.83;1.20;;;;;;;25.17;36.12;99060.75;2080262;28;20063;-45
2023/09/05 01:55:47;;;;;;;2.30;1.73;;;;;;;25.12;36.20;99055.16;2087130;28;20055;-47
2023/09/05 01:56:47;;;;;;;4.47;1.90;;;;;;;25.11;36.24;99056.22;2084603;28;20055;-45
2023/09/05 01:57:49;;;;;;;2.97;1.80;;;;;;;25.14;36.02;99053.06;2083643;28;20146;-44
2023/09/05 01:58:50;;;;;;;5.07;1.40;;;;;;;25.14;36.32;99058.50;2086805;28;20485;-46
2023/09/05 01:59:52;;;;;;;2.38;1.90;;;;;;;25.14;35.78;99055.78;2080843;28;20132;-45
2023/09/05 02:00:53;;;;;;;5.93;2.00;;;;;;;25.15;36.21;99056.59;2080855;28;20053;-46
2023/09/05 02:01:54;;;;;;;4.43;1.60;;;;;;;25.14;35.70;99058.50;2077792;28;20067;-44
2023/09/05 02:02:55;;;;;;;3.85;1.48;;;;;;;25.15;36.22;99062.84;2087182;28;20052;-47
2023/09/05 02:03:57;;;;;;;3.45;1.65;;;;;;;25.12;36.26;99057.03;2085936;28;20085;-44
2023/09/05 02:04:58;;;;;;;2.72;1.48;;;;;;;25.17;36.38;99058.03;2087078;28;20398;-46
2023/09/05 02:06:00;;;;;;;2.90;1.52;;;;;;;25.12;35.71;99060.59;2083243;28;20159;-47
2023/09/05 02:07:00;;;;;;;2.28;1.30;;;;;;;25.14;36.14;99063.94;2085910;28;20067;-47
2023/09/05 02:08:02;;;;;;;8.10;1.70;;;;;;;25.12;36.24;99057.03;2082738;28;20521;-46
2023/09/05 02:09:03;;;;;;;10.43;2.08;;;;;;;25.16;36.51;99061.81;2084475;28;20424;-47
2023/09/05 02:10:06;;;;;;;1.95;1.40;;;;;;;25.11;36.28;99056.22;2089652;28;20052;-46
2023/09/05 02:11:09;;;;;;;2.72;2.10;;;;;;;25.11;36.28;99061.66;2087266;28;20131;-45
2023/09/05 02:12:11;;;;;;;3.50;1.42;;;;;;;25.13;36.48;99059.53;2089634;28;20053;-44
2023/09/05 02:13:12;;;;;;;3.83;1.60;;;;;;;25.12;36.70;99068.72;2087546;28;20143;-43
2023/09/05 02:14:14;;;;;;;1.92;1.33;;;;;;;25.13;36.70;99053.25;2086827;28;20052;-44
2023/09/05 02:15:15;;;;;;;4.38;2.10;;;;;;;25.15;36.62;99062.84;2088948;28;20044;-46
2023/09/05 02:16:19;;;;;;;3.55;1.88;;;;;;;25.12;36.12;99057.03;2087764;28;20443;-43
2023/09/05 02:17:20;;;;;;;1.83;1.38;;;;;;;25.12;36.81;99057.88;2085393;28;20156;-47
2023/09/05 02:18:22;;;;;;;2.38;1.45;;;;;;;25.14;36.79;99055.78;2085704;28;20056;-47
2023/09/05 02:19:26;;;;;;;1.42;1.33;;;;;;;25.14;36.72;99054.94;2083126;28;20126;-47
2023/09/05 02:20:28;;;;;;;3.03;1.30;;;;;;;25.13;36.49;99059.53;2083762;28;20124;-45
2023/09/05 02:21:29;;;;;;;1.60;1.25;;;;;;;25.13;36.51;99062.25;2088694;28;20109;-45
2023/09/05 02:22:31;;;;;;;2.35;1.83;;;;;;;25.17;36.35;99057.19;2087272;28;20448;-46
2023/09/05 02:23:32;;;;;;;3.63;1.38;;;;;;;25.21;36.12;99057.53;2084824;28;20052;-46
2023/09/05 02:24:34;;;;;;;2.33;1.67;;;;;;;25.17;36.54;99065.34;2082667;28;20055;-43
2023/09/05 02:25:35;;;;;;;2.60;1.58;;;;;;;25.13;36.56;99054.13;2082771;28;20053;-44
2023/09/05 02:26:38;;;;;;;3.50;1.75;;;;;;;25.13;36.93;99056.81;2085939;28;20052;-46
2023/09/05 02:27:39;;;;;;;2.95;1.80;;;;;;;25.15;36.46;99057.41;2079326;28;20064;-43
2023/09/05 02:28:41;;;;;;;2.03;1.50;;;;;;;25.15;36.93;99057.41;2081905;28;20060;-43
2023/09/05 02:29:42;;;;;;;3.85;1.63;;;;;;;25.10;36.90;99057.31;2087015;28;20044;-44
2023/09/05 02:30:45;;;;;;;3.88;1.90;;;;;;;25.10;36.75;99051.88;2083039;28;20053;-45
2023/09/05 02:31:46;;;;;;;2.63;1.58;;;;;;;25.11;36.89;99044.56;2086065;28;20041;-44
2023/09/05 02:32:51;;;;;;;2.28;1.77;;;;;;;25.15;36.52;99051.19;2080095;28;20131;-46
2023/09/05 02:33:52;;;;;;;2.58;1.58;;;;;;;25.11;36.78;99047.25;2081328;28;20060;-48
2023/09/05 02:34:53;;;;;;;3.65;2.47;;;;;;;25.12;36.83;99048.91;2082897;28;20086;-49
2023/09/05 02:35:55;;;;;;;2.70;1.17;;;;;;;25.09;36.92;99054.81;2082542;28;20060;-43
2023/09/05 02:36:57;;;;;;;2.97;1.50;;;;;;;25.12;36.74;99052.44;2085952;28;20063;-47
2023/09/05 02:37:59;;;;;;;3.28;1.77;;;;;;;25.05;37.48;99043.59;2086187;28;20575;-47
2023/09/05 02:39:00;;;;;;;1.73;1.58;;;;;;;25.09;37.17;99044.78;2085702;28;20060;-45
2023/09/05 02:40:03;;;;;;;3.35;2.33;;;;;;;25.03;37.13;99044.91;2083318;28;20079;-47
2023/09/05 02:41:04;;;;;;;2.65;1.52;;;;;;;25.09;36.75;99044.78;2084384;28;20056;-45
2023/09/05 02:42:07;;;;;;;2.80;1.48;;;;;;;25.10;37.20;99048.31;2083417;28;20052;-46
2023/09/05 02:43:08;;;;;;;2.55;1.83;;;;;;;25.09;36.74;99042.06;2087196;28;20070;-44
2023/09/05 02:44:10;;;;;;;2.30;1.27;;;;;;;25.06;37.29;99042.53;2081800;28;20087;-43
2023/09/05 02:45:12;;;;;;;5.30;1.83;;;;;;;25.09;37.36;99042.06;2082699;28;20083;-45
2023/09/05 02:46:14;;;;;;;4.60;1.80;;;;;;;25.09;37.37;99038.53;2082236;28;20226;-44
2023/09/05 02:47:15;;;;;;;2.50;1.45;;;;;;;25.09;37.43;99049.38;2079908;28;20048;-44
2023/09/05 02:48:16;;;;;;;3.95;1.80;;;;;;;25.07;36.85;99046.88;2085816;28;20126;-45
2023/09/05 02:49:17;;;;;;;2.53;1.27;;;;;;;25.05;37.13;99040.06;2085374;28;20052;-45
2023/09/05 02:50:19;;;;;;;2.83;1.55;;;;;;;25.07;37.51;99044.19;2086821;28;20054;-43
2023/09/05 02:51:20;;;;;;;2.53;1.42;;;;;;;25.07;37.40;99044.19;2082321;28;20075;-44
2023/09/05 02:52:24;;;;;;;3.80;1.38;;;;;;;25.10;37.12;99037.44;2083598;28;20098;-46
2023/09/05 02:53:25;;;;;;;3.22;1.85;;;;;;;25.09;37.05;99036.63;2085625;28;20107;-45
2023/09/05 02:54:29;;;;;;;2.78;1.40;;;;;;;25.07;37.55;99043.34;2088761;28;20049;-44
2023/09/05 02:55:29;;;;;;;1.95;1.65;;;;;;;25.09;37.50;99044.78;2085442;28;20063;-48
2023/09/05 02:56:31;;;;;;;3.42;1.40;;;;;;;25.09;37.27;99052.91;2085066;28;20056;-44
2023/09/05 02:57:33;;;;;;;2.42;1.60;;;;;;;25.09;37.34;99047.47;2079366;28;20045;-43
2023/09/05 02:58:35;;;;;;;4.00;1.30;;;;;;;25.07;37.41;99043.34;2083142;28;20067;-46
2023/09/05 02:59:36;;;;;;;3.05;1.90;;;;;;;25.08;37.02;99045.03;2083440;28;20048;-45
2023/09/05 03:00:38;;;;;;;2.13;1.40;;;;;;;25.08;37.20;99048.56;2083144;28;20183;-47
2023/09/05 03:01:39;;;;;;;2.38;1.67;;;;;;;25.09;37.34;99052.09;2078887;28;20072;-47
2023/09/05 03:02:42;;;;;;;2.92;1.23;;;;;;;25.08;37.59;99055.88;2086011;28;20418;-45
2023/09/05 03:03:43;;;;;;;5.32;2.22;;;;;;;25.08;37.27;99051.28;2086943;28;20060;-45
2023/09/05 03:04:45;;;;;;;1.63;1.30;;;;;;;25.07;37.71;99057.75;2080083;28;20468;-49
2023/09/05 03:05:46;;;;;;;1.77;1.33;;;;;;;25.10;37.76;99054.59;2087021;28;20064;-46
2023/09/05 03:06:48;;;;;;;3.72;1.52;;;;;;;25.14;37.53;99055.78;2082267;28;20983;-43
2023/09/05 03:07:50;;;;;;;4.32;1.55;;;;;;;25.27;36.98;99056.59;2084225;28;20056;-44
2023/09/05 03:08:51;;;;;;;1.98;1.50;;;;;;;25.24;37.19;99059.78;2085748;28;20044;-47
2023/09/05 03:09:52;;;;;;;2.40;1.75;;;;;;;25.27;37.64;99060.16;2082949;28;22120;-46
2023/09/05 03:10:54;;;;;;;3.33;1.70;;;;;;;25.21;37.48;99052.13;2087359;28;20053;-46
2023/09/05 03:11:55;;;;;;;2.55;1.40;;;;;;;25.19;37.60;99063.22;2086067;28;20049;-46
2023/09/05 03:12:59;;;;;;;1.90;1.50;;;;;;;25.16;37.16;99055.56;2080362;28;20090;-46
2023/09/05 03:14:01;;;;;;;2.83;1.40;;;;;;;25.16;37.37;99050.94;2084348;28;20112;-45
2023/09/05 03:15:04;;;;;;;1.92;1.33;;;;;;;25.13;37.45;99054.13;2083799;28;20630;-44
2023/09/05 03:16:05;;;;;;;5.63;1.63;;;;;;;25.13;38.08;99043.25;2080420;28;20052;-49
2023/09/05 03:17:07;;;;;;;2.70;1.90;;;;;;;25.23;37.79;99050.00;2082325;28;21076;-46
2023/09/05 03:18:08;;;;;;;3.90;1.50;;;;;;;25.11;37.65;99042.66;2084237;28;20048;-45
2023/09/05 03:19:11;;;;;;;3.72;1.98;;;;;;;25.11;37.76;99045.38;2086966;28;20280;-44
2023/09/05 03:20:15;;;;;;;2.85;1.85;;;;;;;25.12;37.85;99046.19;2088545;28;20102;-47
2023/09/05 03:21:16;;;;;;;2.05;1.08;;;;;;;25.12;37.74;99044.28;2088299;28;20462;-44
2023/09/05 03:22:18;;;;;;;5.13;2.08;;;;;;;25.14;37.70;99039.50;2087989;28;20051;-48
2023/09/05 03:23:19;;;;;;;3.63;1.48;;;;;;;25.21;37.85;99043.97;2085595;28;20099;-43
2023/09/05 03:24:21;;;;;;;1.92;1.52;;;;;;;25.25;37.86;99045.16;2082723;28;20854;-45
2023/09/05 03:25:22;;;;;;;2.03;1.48;;;;;;;25.36;37.79;99055.19;2082269;28;20049;-44
2023/09/05 03:26:23;;;;;;;3.08;1.75;;;;;;;25.31;37.91;99055.06;2082791;28;20102;-43
2023/09/05 03:27:24;;;;;;;5.32;1.90;;;;;;;25.22;37.99;99056.50;2087524;28;20056;-45
2023/09/05 03:28:39;;;;;;;3.85;1.80;;;;;;;25.17;37.83;99057.19;2085306;28;20056;-47
2023/09/05 03:29:40;;;;;;;5.18;1.83;;;;;;;25.14;37.78;99061.22;2083597;28;20123;-43
2023/09/05 03:30:42;;;;;;;3.53;1.83;;;;;;;25.24;38.22;99054.34;2084827;28;20120;-45
2023/09/05 03:31:43;;;;;;;2.83;1.33;;;;;;;25.30;38.00;99059.69;2083533;28;20048;-46
2023/09/05 03:32:45;;;;;;;1.30;1.10;;;;;;;25.24;38.14;99054.34;2085197;28;20480;-44
2023/09/05 03:33:47;;;;;;;3.92;2.60;;;;;;;25.21;38.31;99050.22;2084650;28;20055;-44
2023/09/05 03:34:52;;;;;;;3.85;1.55;;;;;;;25.27;38.11;99059.31;2083328;28;20048;-49
2023/09/05 03:35:53;;;;;;;3.85;1.70;;;;;;;25.16;38.39;99053.66;2083449;28;20056;-55
2023/09/05 03:36:55;;;;;;;4.20;1.50;;;;;;;25.16;38.00;99058.28;2086914;28;20331;-49
2023/09/05 03:37:55;;;;;;;2.75;1.42;;;;;;;25.15;38.34;99057.41;2082723;28;20053;-46
2023/09/05 03:38:57;;;;;;;1.92;1.40;;;;;;;25.15;38.59;99056.59;2086009;28;20044;-47
2023/09/05 03:39:58;;;;;;;2.90;1.40;;;;;;;25.12;38.64;99048.91;2086437;28;20208;-55
2023/09/05 03:41:00;;;;;;;1.40;1.30;;;;;;;25.13;38.59;99048.69;2083280;28;20052;-48
2023/09/05 03:42:01;;;;;;;1.75;1.35;;;;;;;25.22;37.99;99051.06;2086557;28;20056;-55
2023/09/05 03:43:03;;;;;;;3.67;2.08;;;;;;;25.12;38.54;99041.59;2087226;28;20061;-51
2023/09/05 03:44:05;;;;;;;2.10;1.52;;;;;;;25.12;38.64;99049.72;2082622;28;20052;-49
2023/09/05 03:45:08;;;;;;;3.58;2.05;;;;;;;25.16;38.54;99052.84;2087617;28;20623;-50
2023/09/05 03:46:10;;;;;;;1.77;1.30;;;;;;;25.18;38.71;99048.84;2084165;28;20569;-52
2023/09/05 03:47:11;;;;;;;1.85;1.42;;;;;;;25.20;38.48;99051.28;2081852;28;20060;-46
2023/09/05 03:48:12;;;;;;;6.55;1.88;;;;;;;25.14;38.13;99047.63;2082782;28;20075;-48
2023/09/05 03:49:13;;;;;;;1.60;1.38;;;;;;;25.15;38.42;99046.56;2083628;28;20432;-47
2023/09/05 03:50:16;;;;;;;3.33;1.70;;;;;;;25.24;38.28;99044.34;2085417;28;20167;-51
2023/09/05 03:51:17;;;;;;;2.20;2.00;;;;;;;25.16;38.08;99050.94;2080425;28;20052;-56
2023/09/05 03:52:18;;;;;;;5.43;1.33;;;;;;;25.13;38.68;99045.97;2087508;28;20157;-48
2023/09/05 03:53:21;;;;;;;4.60;1.70;;;;;;;25.09;38.49;99054.81;2089955;28;20105;-50
2023/09/05 03:54:21;;;;;;;4.00;1.75;;;;;;;25.04;38.79;99044.66;2086076;28;20052;-52
2023/09/05 03:55:23;;;;;;;2.95;1.55;;;;;;;25.05;38.73;99040.91;2086667;28;20059;-54
2023/09/05 03:56:24;;;;;;;4.97;1.63;;;;;;;25.06;38.63;99044.44;2085378;28;20049;-53
2023/09/05 03:57:25;;;;;;;3.67;1.52;;;;;;;25.07;38.41;99044.19;2089388;28;20131;-46
2023/09/05 03:58:27;;;;;;;2.60;1.38;;;;;;;25.06;38.94;99041.72;2080961;28;20135;-52
2023/09/05 03:59:29;;;;;;;2.78;1.95;;;;;;;25.09;38.70;99038.53;2081753;28;20061;-51
2023/09/05 04:00:33;;;;;;;2.70;1.40;;;;;;;25.05;38.67;99046.31;2087066;28;20048;-52
2023/09/05 04:01:34;;;;;;;2.65;1.60;;;;;;;25.07;38.70;99041.47;2088711;28;20048;-54
2023/09/05 04:02:36;;;;;;;2.75;1.55;;;;;;;25.05;39.07;99045.50;2088054;28;20083;-43
2023/09/05 04:03:37;;;;;;;5.05;1.50;;;;;;;25.03;38.72;99039.47;2087021;28;23882;-46
2023/09/05 04:04:38;;;;;;;4.55;1.85;;;;;;;25.10;38.66;99043.72;2083395;28;20052;-48
2023/09/05 04:05:39;;;;;;;1.60;1.50;;;;;;;25.12;39.03;99052.44;2085929;28;20048;-51
2023/09/05 04:06:41;;;;;;;2.85;1.48;;;;;;;25.11;38.43;99052.69;2084770;28;21630;-53
2023/09/05 04:07:42;;;;;;;3.92;2.40;;;;;;;25.18;38.80;99056.13;2085277;28;20055;-52
2023/09/05 04:08:44;;;;;;;3.58;1.40;;;;;;;25.16;38.51;99053.66;2086744;28;20060;-49
2023/09/05 04:09:47;;;;;;;2.53;1.52;;;;;;;25.25;38.36;99050.59;2085247;28;20110;-49
2023/09/05 04:10:48;;;;;;;2.35;1.23;;;;;;;25.15;38.78;99057.41;2086074;28;20115;-52
2023/09/05 04:11:49;;;;;;;1.88;1.67;;;;;;;25.12;38.94;99052.44;2083831;28;20121;-56
2023/09/05 04:12:51;;;;;;;4.50;2.10;;;;;;;25.09;38.55;99061.06;2084714;28;20049;-53
2023/09/05 04:13:52;;;;;;;2.72;1.30;;;;;;;25.08;38.75;99056.69;2085611;28;20055;-56
2023/09/05 04:14:56;;;;;;;3.78;1.48;;;;;;;25.08;38.85;99051.28;2082872;28;20167;-49
2023/09/05 04:16:02;;;;;;;4.03;1.35;;;;;;;25.06;39.20;99056.09;2082116;28;20053;-56
2023/09/05 04:17:04;;;;;;;3.97;1.65;;;;;;;25.05;38.69;99048.22;2083479;28;20534;-54
2023/09/05 04:18:05;;;;;;;2.88;1.73;;;;;;;25.03;39.07;99051.16;2084087;28;20407;-45
2023/09/05 04:19:08;;;;;;;2.10;1.83;;;;;;;25.02;39.10;99057.66;2082796;28;20063;-49
2023/09/05 04:20:09;;;;;;;3.97;1.77;;;;;;;25.02;39.02;99054.09;2084156;28;20056;-55
2023/09/05 04:21:11;;;;;;;2.80;1.60;;;;;;;25.04;39.00;99060.13;2084481;28;20052;-49
2023/09/05 04:22:12;;;;;;;2.25;1.58;;;;;;;25.07;38.94;99062.34;2085329;28;20214;-48
2023/09/05 04:23:13;;;;;;;11.00;3.60;;;;;;;25.04;39.10;99060.94;2082425;28;20064;-46
2023/09/05 04:24:15;;;;;;;2.63;1.90;;;;;;;25.08;39.17;99072.16;2087412;28;20143;-47
2023/09/05 04:25:16;;;;;;;2.03;1.25;;;;;;;25.09;38.74;99069.19;2088052;28;20147;-50
2023/09/05 04:26:18;;;;;;;3.63;1.70;;;;;;;25.10;39.10;99064.59;2084604;28;20894;-48
2023/09/05 04:27:21;;;;;;;1.67;1.58;;;;;;;25.13;38.94;99069.53;2083900;28;20434;-52
2023/09/05 04:28:22;;;;;;;1.98;1.33;;;;;;;25.10;38.59;99067.31;2083964;28;20052;-53
2023/09/05 04:29:24;;;;;;;3.97;2.13;;;;;;;25.10;39.07;99072.72;2083150;28;20503;-49
2023/09/05 04:30:26;;;;;;;3.60;1.48;;;;;;;25.10;38.74;99070.03;2086928;28;20059;-50
2023/09/05 04:31:28;;;;;;;2.15;1.48;;;;;;;25.14;39.08;99072.06;2088494;28;20140;-52
2023/09/05 04:32:30;;;;;;;3.45;1.40;;;;;;;25.10;39.23;99070.03;2084803;28;20040;-50
2023/09/05 04:33:36;;;;;;;3.83;1.73;;;;;;;25.12;38.99;99076.03;2084040;28;20106;-52
2023/09/05 04:34:37;;;;;;;2.53;1.67;;;;;;;25.13;39.11;99075.81;2083690;28;20155;-55
2023/09/05 04:35:39;;;;;;;3.38;1.55;;;;;;;25.12;38.60;99070.63;2081194;28;20731;-43
2023/09/05 04:36:40;;;;;;;5.03;2.03;;;;;;;25.09;39.22;99071.09;2082152;28;20044;-51
2023/09/05 04:37:41;;;;;;;2.42;1.50;;;;;;;25.07;38.82;99074.03;2087812;28;21682;-49
2023/09/05 04:38:44;;;;;;;2.30;1.70;;;;;;;25.15;38.70;99071.00;2087345;28;20075;-53
2023/09/05 04:39:45;;;;;;;3.72;1.33;;;;;;;25.08;39.05;99073.00;2090226;28;20048;-51
2023/09/05 04:40:47;;;;;;;2.90;1.60;;;;;;;25.07;38.68;99070.50;2083967;28;20040;-54
2023/09/05 04:41:48;;;;;;;3.00;1.38;;;;;;;25.10;38.83;99072.72;2086684;28;20056;-50
2023/09/05 04:42:50;;;;;;;5.78;2.17;;;;;;;25.16;38.67;99071.84;2083532;28;20048;-47
2023/09/05 04:43:51;;;;;;;2.22;1.60;;;;;;;25.14;38.63;99063.94;2085522;28;20049;-44
2023/09/05 04:44:52;;;;;;;6.30;1.55;;;;;;;25.11;38.51;99072.50;2086917;28;20171;-50
2023/09/05 04:45:55;;;;;;;4.70;1.70;;;;;;;25.10;38.74;99073.59;2084464;28;20655;-44
2023/09/05 04:47:21;;;;;;;2.65;2.08;;;;;;;25.04;39.13;99070.97;2086202;28;20387;-47
2023/09/05 04:48:22;;;;;;;2.25;1.45;;;;;;;24.97;39.24;99071.91;2085386;28;20086;-47
2023/09/05 04:49:24;;;;;;;3.22;1.83;;;;;;;25.00;38.82;99067.91;2087394;28;20550;-46
2023/09/05 04:50:25;;;;;;;5.50;1.42;;;;;;;25.04;38.81;99070.97;2089289;28;20044;-50
2023/09/05 04:51:27;;;;;;;3.63;1.80;;;;;;;24.99;39.16;99074.41;2082826;28;21878;-49
2023/09/05 04:52:29;;;;;;;2.92;2.25;;;;;;;25.05;38.92;99078.88;2085902;28;20505;-50
2023/09/05 04:53:30;;;;;;;2.78;1.63;;;;;;;25.09;39.00;99074.63;2085751;28;20044;-46